Time;durP1;ratioP1;P1;durP2;ratioP2;P2;SDS_P1;SDS_P2;PMS_P1;PMS_P2;Temp;Humidity;BMP_temperature;BMP_pressure;BME280_temperature;BME280_humidity;BME280_pressure;Samples;Min_cycle;Max_cycle;Signal;HPM_P1;HPM_P2
2021/09/12 00:00:43;;;;;;;6.88;5.43;;;16.40;99.90;;;;;;5005314;28;20036;-79
2021/09/12 00:03:09;;;;;;;7.03;5.45;;;16.40;99.90;;;;;;4969418;28;20029;-79
2021/09/12 00:05:35;;;;;;;7.30;5.45;;;16.40;99.90;;;;;;4993896;28;20022;-78
2021/09/12 00:08:01;;;;;;;6.57;5.05;;;16.40;99.90;;;;;;4989035;28;20430;-78
2021/09/12 00:10:27;;;;;;;5.72;5.10;;;16.40;99.90;;;;;;5019852;28;20033;-78
2021/09/12 00:12:53;;;;;;;6.40;4.95;;;16.40;99.90;;;;;;4991911;28;20029;-78
2021/09/12 00:15:19;;;;;;;6.68;5.07;;;16.40;99.90;;;;;;5021257;28;20030;-79
2021/09/12 00:17:45;;;;;;;7.18;5.35;;;16.40;99.90;;;;;;4998071;28;20026;-79
2021/09/12 00:20:11;;;;;;;8.40;5.15;;;16.40;99.90;;;;;;5011911;28;20502;-78
2021/09/12 00:22:37;;;;;;;6.38;5.00;;;16.40;99.90;;;;;;4982020;28;20037;-78
2021/09/12 00:25:05;;;;;;;5.80;4.85;;;16.40;99.90;;;;;;4993164;28;20451;-79
2021/09/12 00:27:31;;;;;;;6.00;4.90;;;16.40;99.90;;;;;;5004288;28;20029;-79
2021/09/12 00:29:57;;;;;;;6.47;5.20;;;16.40;99.90;;;;;;5008750;28;20045;-79
2021/09/12 00:32:24;;;;;;;6.63;4.43;;;16.40;99.90;;;;;;4985613;28;20037;-79
2021/09/12 00:34:50;;;;;;;6.93;4.88;;;16.40;99.90;;;;;;4979917;28;20167;-79
2021/09/12 00:37:16;;;;;;;6.00;5.00;;;16.40;99.90;;;;;;5003461;28;20133;-78
2021/09/12 00:39:42;;;;;;;6.97;4.88;;;16.30;99.90;;;;;;5014577;28;20025;-79
2021/09/12 00:42:07;;;;;;;6.05;4.72;;;16.40;99.90;;;;;;4974865;28;20452;-79
2021/09/12 00:44:33;;;;;;;7.32;5.47;;;16.30;99.90;;;;;;4994774;28;20064;-79
2021/09/12 00:47:13;;;;;;;9.85;5.72;;;16.30;99.90;;;;;;4993004;28;20053;-79
2021/09/12 00:49:40;;;;;;;9.88;5.28;;;16.30;99.90;;;;;;5009597;28;20037;-79
2021/09/12 00:52:12;;;;;;;7.07;5.43;;;16.40;99.90;;;;;;5012441;28;20060;-79
2021/09/12 00:54:39;;;;;;;6.22;5.22;;;16.40;99.90;;;;;;4995762;28;20040;-78
2021/09/12 00:57:07;;;;;;;8.23;5.00;;;16.40;99.90;;;;;;4999762;28;20042;-78
2021/09/12 00:59:36;;;;;;;5.78;4.97;;;16.40;99.90;;;;;;4989881;28;20092;-79
2021/09/12 01:02:06;;;;;;;7.00;5.70;;;16.40;99.90;;;;;;5014590;28;20072;-78
2021/09/12 01:04:33;;;;;;;8.27;5.80;;;16.40;99.90;;;;;;5001471;28;20026;-79
2021/09/12 01:07:01;;;;;;;7.43;5.35;;;16.40;99.90;;;;;;4992052;28;20041;-79
2021/09/12 01:09:27;;;;;;;9.15;6.10;;;16.40;99.90;;;;;;4989460;28;20065;-78
2021/09/12 01:11:57;;;;;;;7.40;5.28;;;16.40;99.90;;;;;;5000567;28;20077;-79
2021/09/12 01:14:28;;;;;;;7.10;5.63;;;16.40;99.90;;;;;;4994919;28;20033;-79
2021/09/12 01:16:54;;;;;;;10.00;5.78;;;16.40;99.90;;;;;;5001586;28;20048;-78
2021/09/12 01:19:20;;;;;;;11.77;5.90;;;16.40;99.90;;;;;;5020323;28;20033;-79
2021/09/12 01:21:46;;;;;;;5.93;5.10;;;16.40;99.90;;;;;;5005751;28;20034;-79
2021/09/12 01:24:13;;;;;;;9.05;5.60;;;16.40;99.90;;;;;;4999834;28;20033;-79
2021/09/12 01:26:39;;;;;;;9.68;5.10;;;16.40;99.90;;;;;;4992447;28;20030;-79
2021/09/12 01:29:05;;;;;;;5.97;5.07;;;16.40;99.90;;;;;;5018636;28;20025;-79
2021/09/12 01:31:33;;;;;;;5.00;4.28;;;16.40;99.90;;;;;;5003894;28;20033;-78
2021/09/12 01:34:00;;;;;;;6.03;4.82;;;16.40;99.90;;;;;;5014684;28;20038;-79
2021/09/12 01:36:27;;;;;;;7.97;4.88;;;16.40;99.90;;;;;;4999387;28;20065;-79
2021/09/12 01:38:53;;;;;;;7.70;5.65;;;16.40;99.90;;;;;;5003790;28;20124;-79
2021/09/12 01:41:19;;;;;;;6.32;5.00;;;16.40;99.90;;;;;;4996037;28;20449;-79
2021/09/12 01:43:48;;;;;;;5.05;4.53;;;16.40;99.90;;;;;;5008080;28;20029;-79
2021/09/12 01:46:15;;;;;;;5.97;5.10;;;16.40;99.90;;;;;;4986781;28;20055;-78
2021/09/12 01:48:41;;;;;;;8.63;6.20;;;16.40;99.90;;;;;;5003924;28;20021;-79
2021/09/12 01:51:07;;;;;;;9.73;5.63;;;16.40;99.90;;;;;;5003364;28;20116;-79
2021/09/12 01:53:33;;;;;;;7.28;5.80;;;16.40;99.90;;;;;;4977850;28;20121;-78
2021/09/12 01:55:59;;;;;;;8.85;5.88;;;16.40;99.90;;;;;;5018248;28;20120;-79
2021/09/12 01:58:26;;;;;;;8.57;6.40;;;16.40;99.90;;;;;;5015530;28;20022;-78
2021/09/12 02:00:55;;;;;;;13.45;6.85;;;16.40;99.90;;;;;;4994442;28;20029;-79
2021/09/12 02:03:20;;;;;;;8.98;6.47;;;16.40;99.90;;;;;;5001959;28;20033;-79
2021/09/12 02:05:46;;;;;;;7.55;5.15;;;16.40;99.90;;;;;;4969689;28;20032;-79
2021/09/12 02:08:12;;;;;;;7.65;5.57;;;16.30;99.90;;;;;;5005231;28;20030;-79
2021/09/12 02:10:38;;;;;;;7.45;5.43;;;16.30;99.90;;;;;;4986376;28;20033;-78
2021/09/12 02:13:03;;;;;;;6.40;5.18;;;16.30;99.90;;;;;;5005058;28;20034;-79
2021/09/12 02:15:29;;;;;;;5.93;5.22;;;16.30;99.90;;;;;;5016951;28;20037;-79
2021/09/12 02:17:55;;;;;;;7.22;5.10;;;16.30;99.90;;;;;;4999450;28;20124;-79
2021/09/12 02:20:20;;;;;;;6.50;5.00;;;16.30;99.90;;;;;;5020603;28;20045;-79
2021/09/12 02:22:46;;;;;;;6.30;4.75;;;16.30;99.90;;;;;;4985081;28;20026;-78
2021/09/12 02:25:12;;;;;;;6.68;5.63;;;16.30;99.90;;;;;;4980936;28;20491;-78
2021/09/12 02:27:38;;;;;;;9.52;5.45;;;16.30;99.90;;;;;;5014728;28;20153;-78
2021/09/12 02:30:05;;;;;;;6.43;4.93;;;16.30;99.90;;;;;;5020534;28;20033;-79
2021/09/12 02:32:31;;;;;;;7.43;4.72;;;16.30;99.90;;;;;;4995933;28;20028;-79
2021/09/12 02:34:57;;;;;;;6.20;5.15;;;16.20;99.90;;;;;;4990103;28;20063;-78
2021/09/12 02:37:23;;;;;;;11.02;5.90;;;16.20;99.90;;;;;;4988391;28;20044;-78
2021/09/12 02:39:49;;;;;;;6.78;5.35;;;16.20;99.90;;;;;;4970803;28;20026;-79
2021/09/12 02:42:15;;;;;;;7.53;5.60;;;16.20;99.90;;;;;;4988048;28;20029;-79
2021/09/12 02:44:41;;;;;;;10.43;6.13;;;16.20;99.90;;;;;;5019475;28;20068;-79
2021/09/12 02:47:06;;;;;;;9.85;6.22;;;16.10;99.90;;;;;;5005993;28;20037;-79
2021/09/12 02:49:32;;;;;;;8.13;5.45;;;16.20;99.90;;;;;;4995083;28;20026;-79
2021/09/12 02:51:58;;;;;;;9.57;6.85;;;16.10;99.90;;;;;;4976525;28;20037;-79
2021/09/12 02:54:23;;;;;;;8.50;6.00;;;16.10;99.90;;;;;;4998579;28;20496;-78
2021/09/12 02:56:49;;;;;;;8.10;6.30;;;16.10;99.90;;;;;;4986144;28;20112;-78
2021/09/12 02:59:15;;;;;;;9.93;6.47;;;16.10;99.90;;;;;;5013185;28;20536;-79
2021/09/12 03:01:40;;;;;;;9.68;6.35;;;16.10;99.90;;;;;;4994584;28;20114;-78
2021/09/12 03:04:06;;;;;;;9.18;6.80;;;16.10;99.90;;;;;;4996386;28;20480;-79
2021/09/12 03:06:32;;;;;;;8.93;6.70;;;16.00;99.90;;;;;;4994701;28;20030;-79
2021/09/12 03:08:58;;;;;;;11.68;7.25;;;16.00;99.90;;;;;;4970482;28;20033;-78
2021/09/12 03:11:23;;;;;;;9.88;6.40;;;16.10;99.90;;;;;;4978038;28;20547;-79
2021/09/12 03:13:49;;;;;;;9.55;6.70;;;16.10;99.90;;;;;;5000902;28;20188;-79
2021/09/12 03:16:15;;;;;;;8.52;5.90;;;16.00;99.90;;;;;;4985915;28;20038;-79
2021/09/12 03:18:41;;;;;;;8.10;5.93;;;16.00;99.90;;;;;;4978093;28;20503;-79
2021/09/12 03:21:07;;;;;;;6.97;5.95;;;16.00;99.90;;;;;;5019083;28;20037;-79
2021/09/12 03:23:32;;;;;;;9.73;7.15;;;15.90;99.90;;;;;;4993128;28;20029;-79
2021/09/12 03:25:58;;;;;;;8.27;6.40;;;15.90;99.90;;;;;;5002168;28;20076;-78
2021/09/12 03:28:24;;;;;;;8.55;6.07;;;15.90;99.90;;;;;;4986216;28;20030;-79
2021/09/12 03:30:49;;;;;;;8.30;5.65;;;15.90;99.90;;;;;;4993386;28;20384;-78
2021/09/12 03:33:16;;;;;;;12.38;6.15;;;15.80;99.90;;;;;;4988123;28;20041;-79
2021/09/12 03:35:42;;;;;;;8.35;5.97;;;15.80;99.90;;;;;;5016026;28;20033;-78
2021/09/12 03:38:09;;;;;;;10.82;6.45;;;15.80;99.90;;;;;;5001700;28;20045;-79
2021/09/12 03:40:34;;;;;;;8.82;6.40;;;15.80;99.90;;;;;;5018818;28;20028;-78
2021/09/12 03:43:01;;;;;;;7.18;5.45;;;15.80;99.90;;;;;;5009508;28;20038;-79
2021/09/12 03:45:26;;;;;;;7.15;5.50;;;15.70;99.90;;;;;;5014088;28;20455;-78
2021/09/12 03:47:52;;;;;;;8.85;5.82;;;15.70;99.90;;;;;;5018417;28;20029;-78
2021/09/12 03:50:18;;;;;;;9.75;6.03;;;15.70;99.90;;;;;;5011703;28;20772;-78
2021/09/12 03:52:44;;;;;;;7.60;5.63;;;15.60;99.90;;;;;;4984954;28;20041;-79
2021/09/12 03:55:10;;;;;;;7.47;5.57;;;15.60;99.90;;;;;;5018266;28;20037;-78
2021/09/12 03:57:36;;;;;;;10.45;5.57;;;15.50;99.90;;;;;;4986240;28;20044;-79
2021/09/12 04:00:06;;;;;;;9.73;6.40;;;15.50;99.90;;;;;;5001609;28;20061;-79
2021/09/12 04:02:38;;;;;;;7.30;5.38;;;15.40;99.90;;;;;;5003275;28;20038;-78
2021/09/12 04:05:04;;;;;;;8.00;6.18;;;15.40;99.90;;;;;;5017153;28;20030;-79
2021/09/12 04:07:29;;;;;;;8.55;5.55;;;15.30;99.90;;;;;;4989129;28;20392;-78
2021/09/12 04:09:55;;;;;;;8.60;5.85;;;15.30;99.90;;;;;;5005582;28;20033;-79
2021/09/12 04:12:21;;;;;;;10.80;6.45;;;15.30;99.90;;;;;;5012964;28;20021;-79
2021/09/12 04:14:46;;;;;;;8.32;6.30;;;15.30;99.90;;;;;;4993418;28;20038;-78
2021/09/12 04:17:12;;;;;;;10.38;6.65;;;15.20;99.90;;;;;;5007788;28;20124;-79
2021/09/12 04:19:38;;;;;;;8.23;5.53;;;15.20;99.90;;;;;;4984932;28;20084;-79
2021/09/12 04:22:04;;;;;;;9.00;5.53;;;15.20;99.90;;;;;;5001652;28;20033;-79
2021/09/12 04:24:29;;;;;;;8.38;6.05;;;15.20;99.90;;;;;;5000629;28;20037;-78
2021/09/12 04:26:55;;;;;;;8.93;5.60;;;15.20;99.90;;;;;;4989274;28;20040;-79
2021/09/12 04:29:22;;;;;;;8.40;5.93;;;15.10;99.90;;;;;;4996327;28;20533;-79
2021/09/12 04:31:48;;;;;;;7.38;5.78;;;15.10;99.90;;;;;;4985826;28;20534;-79
2021/09/12 04:34:14;;;;;;;10.32;4.85;;;15.10;99.90;;;;;;4980157;28;20126;-78
2021/09/12 04:36:40;;;;;;;7.03;5.43;;;15.10;99.90;;;;;;5017405;23;20048;-81
2021/09/12 04:39:05;;;;;;;7.93;5.80;;;15.10;99.90;;;;;;5002047;28;20022;-81
2021/09/12 04:41:31;;;;;;;7.38;5.47;;;15.00;99.90;;;;;;4987372;28;20503;-81
2021/09/12 04:43:56;;;;;;;6.70;4.70;;;15.00;99.90;;;;;;5009040;28;20044;-81
2021/09/12 04:46:22;;;;;;;8.50;5.97;;;15.00;99.90;;;;;;4990426;28;20613;-81
2021/09/12 04:48:48;;;;;;;7.47;5.78;;;15.00;99.90;;;;;;5000449;28;20029;-81
2021/09/12 04:51:13;;;;;;;7.30;5.90;;;15.00;99.90;;;;;;5006762;28;20036;-81
2021/09/12 04:53:40;;;;;;;10.27;6.13;;;15.00;99.90;;;;;;5007227;28;20403;-81
2021/09/12 04:56:05;;;;;;;8.18;6.18;;;15.00;99.90;;;;;;5015038;28;20037;-81
2021/09/12 04:58:31;;;;;;;12.90;6.25;;;15.10;99.90;;;;;;4992481;28;20029;-80
2021/09/12 05:00:57;;;;;;;8.00;6.05;;;15.00;99.90;;;;;;5007835;28;20483;-80
2021/09/12 05:03:23;;;;;;;8.90;6.40;;;15.00;99.90;;;;;;5015925;28;20040;-80
2021/09/12 05:05:48;;;;;;;9.35;5.90;;;15.10;99.90;;;;;;4993845;28;20033;-81
2021/09/12 05:08:14;;;;;;;10.18;6.70;;;15.10;99.90;;;;;;5003941;28;20044;-80
2021/09/12 05:10:40;;;;;;;6.63;5.57;;;15.10;99.90;;;;;;5002728;28;20029;-81
2021/09/12 05:13:06;;;;;;;9.25;6.50;;;15.10;99.90;;;;;;5010305;28;20032;-81
2021/09/12 05:15:31;;;;;;;10.93;7.32;;;15.10;99.90;;;;;;5027959;28;20025;-81
2021/09/12 05:17:57;;;;;;;8.75;6.43;;;15.20;99.90;;;;;;4963022;28;20407;-80
2021/09/12 05:20:24;;;;;;;8.95;6.57;;;15.20;99.90;;;;;;5015820;28;20029;-81
2021/09/12 05:22:49;;;;;;;9.20;5.80;;;15.30;99.90;;;;;;5031158;28;20044;-81
2021/09/12 05:25:15;;;;;;;9.15;6.70;;;15.30;99.90;;;;;;5030177;28;20034;-81
2021/09/12 05:27:41;;;;;;;10.77;7.57;;;15.40;99.90;;;;;;5011968;28;20029;-81
2021/09/12 05:30:07;;;;;;;11.40;7.68;;;15.40;99.90;;;;;;5038492;28;20034;-80
2021/09/12 05:32:33;;;;;;;8.88;6.32;;;15.40;99.90;;;;;;5030365;28;20021;-81
2021/09/12 05:34:59;;;;;;;10.27;7.13;;;15.50;99.90;;;;;;4995132;28;20436;-80
2021/09/12 05:37:24;;;;;;;11.77;7.97;;;15.60;99.90;;;;;;5022647;28;20033;-80
2021/09/12 05:39:50;;;;;;;9.85;7.00;;;15.60;99.90;;;;;;5010802;28;20494;-81
2021/09/12 05:42:15;;;;;;;9.82;6.35;;;15.70;99.90;;;;;;4992931;28;20060;-80
2021/09/12 05:44:41;;;;;;;11.05;6.85;;;15.80;99.90;;;;;;4986997;28;20036;-81
2021/09/12 05:47:07;;;;;;;8.77;6.20;;;15.90;99.90;;;;;;5008859;28;20026;-81
2021/09/12 05:49:33;;;;;;;11.07;7.30;;;16.00;99.90;;;;;;4997911;28;20079;-80
2021/09/12 05:51:58;;;;;;;11.73;8.05;;;16.00;99.90;;;;;;4994525;28;20033;-80
2021/09/12 05:54:24;;;;;;;10.38;7.20;;;16.10;99.90;;;;;;5015691;28;20451;-80
2021/09/12 05:56:50;;;;;;;10.15;7.55;;;16.10;99.90;;;;;;4998943;28;20038;-81
2021/09/12 05:59:16;;;;;;;12.18;7.80;;;16.20;99.90;;;;;;5033580;28;20580;-80
2021/09/12 06:01:42;;;;;;;10.43;7.00;;;16.20;99.90;;;;;;5024579;28;20025;-81
2021/09/12 06:04:08;;;;;;;11.48;8.48;;;16.20;99.90;;;;;;5015589;28;20476;-80
2021/09/12 06:06:34;;;;;;;11.43;8.05;;;16.30;99.90;;;;;;5010773;28;20028;-80
2021/09/12 06:08:59;;;;;;;11.38;7.90;;;16.30;99.90;;;;;;4983545;28;20030;-80
2021/09/12 06:11:26;;;;;;;11.25;7.75;;;16.40;99.90;;;;;;5009784;28;20026;-80
2021/09/12 06:13:51;;;;;;;10.98;6.65;;;16.40;99.90;;;;;;5007515;28;20038;-80
2021/09/12 06:16:17;;;;;;;9.93;7.53;;;16.50;99.90;;;;;;5012191;28;20040;-81
2021/09/12 06:18:43;;;;;;;11.32;7.60;;;16.50;99.90;;;;;;5027561;28;20066;-80
2021/09/12 06:21:09;;;;;;;11.07;7.55;;;16.60;99.90;;;;;;5010593;28;20029;-80
2021/09/12 06:23:35;;;;;;;9.98;7.30;;;16.60;99.90;;;;;;5034680;28;20037;-80
2021/09/12 06:26:00;;;;;;;11.57;7.93;;;16.70;99.90;;;;;;4988776;28;20087;-80
2021/09/12 06:28:26;;;;;;;13.48;7.85;;;16.70;99.90;;;;;;4983920;28;20563;-80
2021/09/12 06:30:52;;;;;;;12.35;7.95;;;16.90;99.90;;;;;;4999160;28;20025;-80
2021/09/12 06:33:17;;;;;;;11.02;6.90;;;17.10;99.90;;;;;;5009357;28;20064;-81
2021/09/12 06:35:43;;;;;;;8.48;6.43;;;17.30;99.90;;;;;;5017824;28;20120;-80
2021/09/12 06:38:09;;;;;;;8.07;6.60;;;17.40;99.90;;;;;;5020128;28;20044;-81
2021/09/12 06:40:35;;;;;;;9.93;7.00;;;17.50;99.90;;;;;;5026885;28;20491;-81
2021/09/12 06:43:02;;;;;;;9.55;6.63;;;17.70;99.90;;;;;;5006879;28;20110;-81
2021/09/12 06:45:29;;;;;;;7.47;5.72;;;17.90;99.90;;;;;;5030054;28;20100;-81
2021/09/12 06:47:56;;;;;;;8.52;5.95;;;18.00;99.90;;;;;;5009989;28;20033;-80
2021/09/12 06:50:23;;;;;;;7.43;5.70;;;18.10;99.90;;;;;;5034504;28;20117;-81
2021/09/12 06:52:48;;;;;;;6.75;5.25;;;18.10;99.90;;;;;;5008712;28;20064;-80
2021/09/12 06:55:14;;;;;;;8.45;6.00;;;18.00;99.90;;;;;;5018349;28;20479;-80
2021/09/12 06:57:41;;;;;;;6.45;5.28;;;18.00;99.90;;;;;;5022545;28;20048;-80
2021/09/12 07:00:10;;;;;;;8.50;5.75;;;17.90;99.90;;;;;;5009626;28;20037;-81
2021/09/12 07:02:37;;;;;;;8.05;5.90;;;17.90;99.90;;;;;;5027387;28;20376;-81
2021/09/12 07:05:04;;;;;;;7.53;5.38;;;18.00;99.90;;;;;;5029520;28;20030;-80
2021/09/12 07:07:30;;;;;;;7.38;5.32;;;18.00;99.90;;;;;;5039008;28;20084;-81
2021/09/12 07:09:56;;;;;;;7.22;5.53;;;18.00;99.90;;;;;;4984180;28;20045;-80
2021/09/12 07:12:21;;;;;;;9.52;5.57;;;18.00;99.90;;;;;;5012262;28;20029;-80
2021/09/12 07:14:47;;;;;;;6.68;5.13;;;17.90;99.90;;;;;;4982595;28;20072;-80
2021/09/12 07:17:13;;;;;;;6.30;4.97;;;18.00;99.90;;;;;;4984134;28;20030;-81
2021/09/12 07:19:39;;;;;;;5.90;5.25;;;18.00;99.90;;;;;;5016394;28;20029;-80
2021/09/12 07:22:05;;;;;;;6.40;5.20;;;18.10;99.90;;;;;;5031336;28;20037;-80
2021/09/12 07:24:32;;;;;;;6.97;4.88;;;18.20;99.90;;;;;;5010008;28;20083;-81
2021/09/12 07:26:58;;;;;;;4.88;3.90;;;18.50;99.90;;;;;;5035497;28;20037;-80
2021/09/12 07:29:24;;;;;;;6.80;4.70;;;18.70;99.90;;;;;;5013162;28;20029;-81
2021/09/12 07:31:51;;;;;;;5.13;4.10;;;18.90;99.90;;;;;;5011946;28;20029;-81
2021/09/12 07:34:17;;;;;;;5.90;3.72;;;19.00;99.90;;;;;;4992531;28;20040;-81
2021/09/12 07:36:43;;;;;;;4.97;4.20;;;19.00;99.90;;;;;;5040729;28;20037;-80
2021/09/12 07:39:08;;;;;;;5.50;4.40;;;19.00;99.90;;;;;;4996957;28;20033;-81
2021/09/12 07:41:35;;;;;;;6.47;3.97;;;19.20;99.90;;;;;;5031511;28;20041;-81
2021/09/12 07:44:00;;;;;;;4.95;3.67;;;19.30;99.90;;;;;;5012849;28;20041;-81
2021/09/12 07:46:26;;;;;;;3.90;3.47;;;19.40;99.90;;;;;;5008775;28;20037;-81
2021/09/12 07:48:52;;;;;;;4.93;3.90;;;19.60;99.90;;;;;;4982247;28;20024;-81
2021/09/12 07:51:17;;;;;;;6.97;4.40;;;19.60;99.90;;;;;;5009851;28;20132;-81
2021/09/12 07:53:43;;;;;;;6.18;4.03;;;19.60;99.90;;;;;;5013002;28;20075;-81
2021/09/12 07:56:09;;;;;;;4.57;3.40;;;19.70;99.90;;;;;;5013443;28;20036;-82
2021/09/12 07:58:34;;;;;;;5.97;4.30;;;19.70;99.90;;;;;;5013347;28;20573;-82
2021/09/12 08:01:00;;;;;;;5.10;4.15;;;19.60;99.90;;;;;;4997115;28;20595;-82
2021/09/12 08:03:26;;;;;;;4.63;4.03;;;19.60;99.90;;;;;;5013374;28;20033;-82
2021/09/12 08:05:52;;;;;;;6.00;3.85;;;19.60;99.90;;;;;;5012502;28;20501;-82
2021/09/12 08:08:19;;;;;;;5.43;4.10;;;19.40;99.90;;;;;;4987764;28;20038;-82
2021/09/12 08:10:45;;;;;;;6.05;4.10;;;19.40;99.90;;;;;;4988934;28;21010;-81
2021/09/12 08:13:11;;;;;;;5.10;4.00;;;19.40;99.90;;;;;;5009311;28;20034;-82
2021/09/12 08:15:38;;;;;;;4.05;3.65;;;19.70;99.90;;;;;;4996927;28;20033;-81
2021/09/12 08:18:05;;;;;;;4.47;3.25;;;19.90;99.90;;;;;;5014945;28;20125;-81
2021/09/12 08:20:30;;;;;;;3.97;3.10;;;20.20;99.90;;;;;;5003673;28;20087;-81
2021/09/12 08:22:56;;;;;;;4.20;3.50;;;20.40;99.90;;;;;;4993710;28;20038;-81
2021/09/12 08:25:22;;;;;;;4.72;4.07;;;20.50;99.90;;;;;;4981006;28;20441;-80
2021/09/12 08:27:47;;;;;;;5.90;4.13;;;20.40;99.90;;;;;;5003080;28;20041;-81
2021/09/12 08:30:13;;;;;;;6.80;4.18;;;20.30;99.90;;;;;;5002852;28;20042;-82
2021/09/12 08:32:39;;;;;;;4.38;3.85;;;20.10;99.90;;;;;;5008611;28;20033;-81
2021/09/12 08:35:06;;;;;;;3.78;3.22;;;20.10;99.90;;;;;;5014247;28;20048;-81
2021/09/12 08:37:31;;;;;;;3.92;3.50;;;20.10;99.90;;;;;;5018222;28;20506;-81
2021/09/12 08:39:57;;;;;;;3.25;2.95;;;20.20;99.90;;;;;;4992604;28;20034;-81
2021/09/12 08:42:26;;;;;;;3.50;3.15;;;20.30;99.90;;;;;;5022806;28;20029;-81
2021/09/12 08:44:52;;;;;;;5.20;3.45;;;20.20;99.90;;;;;;5025245;28;20451;-81
2021/09/12 08:47:18;;;;;;;4.43;3.45;;;20.20;99.90;;;;;;5005608;28;20037;-81
2021/09/12 08:49:45;;;;;;;4.10;3.40;;;20.10;99.90;;;;;;5024329;28;20029;-81
2021/09/12 08:52:12;;;;;;;5.07;3.78;;;20.00;99.90;;;;;;5028009;28;20514;-81
2021/09/12 08:54:38;;;;;;;4.38;3.97;;;20.00;99.90;;;;;;5031140;28;20487;-81
2021/09/12 08:57:04;;;;;;;3.55;2.85;;;20.00;99.90;;;;;;5025432;28;20040;-81
2021/09/12 08:59:33;;;;;;;3.10;2.80;;;20.00;99.90;;;;;;4999007;28;20094;-80
2021/09/12 09:02:01;;;;;;;3.92;3.40;;;20.00;99.90;;;;;;5000416;28;20060;-82
2021/09/12 09:04:29;;;;;;;4.78;3.35;;;20.00;99.90;;;;;;5018029;28;20028;-82
2021/09/12 09:07:05;;;;;;;3.20;2.90;;;20.00;99.90;;;;;;5002550;28;20061;-81
2021/09/12 09:09:41;;;;;;;4.22;3.05;;;20.00;99.90;;;;;;4972130;28;20487;-82
2021/09/12 09:12:24;;;;;;;2.75;2.45;;;20.00;99.90;;;;;;5008803;28;20487;-82
2021/09/12 09:15:06;;;;;;;3.17;2.70;;;19.90;99.90;;;;;;5013639;28;20031;-82
2021/09/12 09:17:37;;;;;;;2.85;2.58;;;19.90;99.90;;;;;;4994786;28;20064;-82
2021/09/12 09:20:06;;;;;;;2.88;2.67;;;19.90;99.90;;;;;;4996163;28;20517;-82
2021/09/12 09:22:41;;;;;;;4.78;2.40;;;19.80;99.90;;;;;;5008138;28;20040;-82
2021/09/12 09:25:26;;;;;;;3.80;2.78;;;19.70;99.90;;;;;;5010520;28;20033;-81
2021/09/12 09:28:09;;;;;;;3.05;2.40;;;19.70;99.90;;;;;;4987523;28;20025;-81
2021/09/12 09:30:37;;;;;;;2.45;2.25;;;19.60;99.90;;;;;;5031539;28;20056;-81
2021/09/12 09:33:22;;;;;;;3.58;2.75;;;19.60;99.90;;;;;;5028807;28;20043;-81
2021/09/12 09:35:52;;;;;;;3.53;2.88;;;19.50;99.90;;;;;;5007724;28;20075;-81
2021/09/12 09:38:22;;;;;;;3.20;2.90;;;19.60;99.90;;;;;;5012636;28;20499;-81
2021/09/12 09:41:03;;;;;;;3.72;2.40;;;19.70;99.90;;;;;;4995060;28;20041;-82
2021/09/12 09:43:55;;;;;;;4.22;2.60;;;19.80;99.90;;;;;;5016893;28;20025;-82
2021/09/12 09:46:30;;;;;;;3.10;2.22;;;19.90;99.90;;;;;;4990253;28;20440;-81
2021/09/12 09:48:58;;;;;;;2.58;2.10;;;20.00;99.90;;;;;;5027494;28;20021;-81
2021/09/12 09:51:24;;;;;;;2.28;2.08;;;20.00;99.90;;;;;;5022427;28;20025;-81
2021/09/12 09:53:50;;;;;;;1.83;1.73;;;20.00;99.90;;;;;;5015323;28;20162;-82
2021/09/12 09:56:17;;;;;;;1.40;1.30;;;19.90;99.90;;;;;;5013222;28;20057;-82
2021/09/12 09:58:44;;;;;;;1.88;1.70;;;19.80;99.90;;;;;;5039825;28;20109;-83
2021/09/12 10:01:10;;;;;;;1.13;1.13;;;19.70;99.90;;;;;;5009665;28;20037;-82
2021/09/12 10:03:37;;;;;;;1.77;1.67;;;19.60;99.90;;;;;;5012935;28;20036;-82
2021/09/12 10:06:03;;;;;;;1.92;1.80;;;19.40;99.90;;;;;;5004061;28;20075;-80
2021/09/12 10:08:30;;;;;;;2.30;1.60;;;19.30;99.90;;;;;;5014073;28;20608;-82
2021/09/12 10:10:56;;;;;;;2.90;1.30;;;19.30;99.90;;;;;;5025741;28;20411;-82
2021/09/12 10:13:25;;;;;;;2.20;2.00;;;19.30;99.90;;;;;;5032584;28;20029;-81
2021/09/12 10:15:56;;;;;;;2.20;1.98;;;19.20;99.90;;;;;;5007144;28;20017;-82
2021/09/12 10:18:27;;;;;;;1.60;1.50;;;19.20;99.90;;;;;;5037786;28;20456;-82
2021/09/12 10:20:54;;;;;;;1.70;1.60;;;19.30;99.90;;;;;;5002062;28;20033;-82
2021/09/12 10:23:20;;;;;;;1.52;1.42;;;19.40;99.90;;;;;;5033722;28;20071;-82
2021/09/12 10:25:49;;;;;;;1.98;1.70;;;19.50;99.90;;;;;;5033755;28;20086;-82
2021/09/12 10:28:28;;;;;;;2.53;1.58;;;19.70;99.90;;;;;;4999218;28;20532;-82
2021/09/12 10:30:54;;;;;;;1.65;1.38;;;19.90;99.90;;;;;;5005480;28;20402;-81
2021/09/12 10:33:21;;;;;;;2.10;1.30;;;20.00;99.90;;;;;;4985171;28;20049;-80
2021/09/12 10:35:52;;;;;;;1.67;1.48;;;20.30;99.90;;;;;;5002074;28;20048;-80
2021/09/12 10:38:33;;;;;;;2.22;1.60;;;20.60;99.90;;;;;;5031324;28;20079;-79
2021/09/12 10:41:01;;;;;;;1.60;1.50;;;20.80;99.90;;;;;;5024610;28;20025;-78
2021/09/12 10:43:27;;;;;;;2.83;1.40;;;21.10;99.90;;;;;;5031848;28;20035;-82
2021/09/12 10:46:05;;;;;;;1.70;1.60;;;21.10;99.90;;;;;;5053795;28;20221;-81
2021/09/12 10:48:36;;;;;;;3.33;1.38;;;21.10;99.90;;;;;;5015593;28;20689;-79
2021/09/12 10:51:22;;;;;;;1.48;1.38;;;21.10;99.90;;;;;;5036516;28;20025;-79
2021/09/12 10:53:59;;;;;;;1.50;1.30;;;21.00;99.90;;;;;;5048456;28;20318;-80
2021/09/12 10:56:25;;;;;;;1.40;1.27;;;20.90;99.90;;;;;;5029262;28;20037;-79
2021/09/12 10:58:56;;;;;;;1.52;1.42;;;20.80;99.90;;;;;;5016707;28;20035;-79
2021/09/12 11:01:40;;;;;;;1.45;1.35;;;20.90;99.90;;;;;;5026341;28;20494;-83
2021/09/12 11:04:07;;;;;;;2.00;1.45;;;20.90;99.90;;;;;;5032291;28;20064;-79
2021/09/12 11:06:35;;;;;;;1.30;1.20;;;20.90;99.90;;;;;;5042222;28;20104;-80
2021/09/12 11:09:04;;;;;;;1.83;1.30;;;20.90;99.90;;;;;;5018246;28;20035;-79
2021/09/12 11:11:30;;;;;;;1.60;1.50;;;20.80;99.90;;;;;;5040699;28;20033;-79
2021/09/12 11:13:57;;;;;;;1.77;1.60;;;20.80;99.90;;;;;;5038166;22;20040;-80
2021/09/12 11:16:24;;;;;;;1.98;1.30;;;20.80;99.90;;;;;;5037731;28;20094;-80
2021/09/12 11:18:54;;;;;;;1.00;0.90;;;20.70;99.90;;;;;;5029182;28;20119;-80
2021/09/12 11:21:47;;;;;;;1.23;0.98;;;20.60;99.90;;;;;;5017078;28;20041;-80
2021/09/12 11:24:15;;;;;;;1.35;1.25;;;20.70;99.90;;;;;;5014869;28;20052;-80
2021/09/12 11:26:46;;;;;;;1.00;1.00;;;20.80;99.90;;;;;;5006538;28;20450;-81
2021/09/12 11:29:14;;;;;;;1.23;1.13;;;20.80;99.90;;;;;;5023783;28;20217;-81
2021/09/12 11:31:43;;;;;;;1.17;1.08;;;20.80;99.90;;;;;;5029825;28;20045;-81
2021/09/12 11:34:09;;;;;;;1.67;1.40;;;20.90;99.90;;;;;;5010935;28;20521;-79
2021/09/12 11:36:45;;;;;;;1.35;1.23;;;21.00;99.90;;;;;;5023405;28;20479;-80
2021/09/12 11:39:12;;;;;;;2.45;1.17;;;21.10;99.90;;;;;;5004218;28;20038;-80
2021/09/12 11:41:41;;;;;;;1.30;1.10;;;21.20;99.90;;;;;;5012147;28;20029;-80
2021/09/12 11:44:07;;;;;;;1.45;1.10;;;21.40;99.90;;;;;;4989725;28;20035;-80
2021/09/12 11:46:33;;;;;;;2.50;1.27;;;21.50;99.90;;;;;;5009925;28;20182;-80
2021/09/12 11:49:01;;;;;;;1.25;1.10;;;21.60;99.90;;;;;;5000261;28;20041;-80
2021/09/12 11:51:34;;;;;;;1.85;1.35;;;21.80;99.90;;;;;;4997777;28;20017;-80
2021/09/12 11:54:16;;;;;;;1.17;1.08;;;21.80;99.90;;;;;;5020633;28;20036;-79
2021/09/12 11:56:44;;;;;;;1.95;1.10;;;21.90;99.90;;;;;;5023929;28;20029;-79
2021/09/12 11:59:11;;;;;;;1.50;1.40;;;21.80;99.90;;;;;;5039923;28;20041;-79
2021/09/12 12:01:39;;;;;;;1.52;1.42;;;21.80;99.90;;;;;;5021569;28;20040;-78
2021/09/12 12:04:09;;;;;;;1.40;1.30;;;21.80;99.90;;;;;;5008878;28;20037;-78
2021/09/12 12:06:35;;;;;;;2.05;1.30;;;22.00;99.90;;;;;;4994264;28;20494;-77
2021/09/12 12:09:18;;;;;;;1.23;1.13;;;22.20;99.90;;;;;;5014875;28;20496;-77
2021/09/12 12:11:46;;;;;;;1.60;1.50;;;22.30;99.90;;;;;;5012499;28;20415;-76
2021/09/12 12:14:58;;;;;;;1.50;1.35;;;22.20;99.90;;;;;;5000393;28;20044;-77
2021/09/12 12:17:25;;;;;;;2.08;1.10;;;22.20;99.90;;;;;;4973750;28;20048;-77
2021/09/12 12:19:52;;;;;;;1.48;1.23;;;22.30;99.90;;;;;;5033908;28;20064;-77
2021/09/12 12:22:20;;;;;;;1.58;1.20;;;22.20;99.90;;;;;;5014126;28;20445;-78
2021/09/12 12:24:50;;;;;;;1.40;1.17;;;22.10;99.90;;;;;;5027178;28;20056;-79
2021/09/12 12:27:18;;;;;;;1.40;1.30;;;22.10;99.90;;;;;;5023189;28;20025;-79
2021/09/12 12:29:53;;;;;;;2.67;1.20;;;22.10;99.90;;;;;;4994061;28;20045;-79
2021/09/12 12:32:19;;;;;;;2.53;1.20;;;22.20;99.90;;;;;;5011544;28;20035;-80
2021/09/12 12:34:52;;;;;;;1.30;1.20;;;22.20;99.90;;;;;;5009102;28;20029;-79
2021/09/12 12:37:21;;;;;;;1.13;1.13;;;22.20;99.90;;;;;;5021001;28;20038;-79
2021/09/12 12:40:05;;;;;;;1.20;1.10;;;22.00;99.90;;;;;;5039480;28;20108;-79
2021/09/12 12:42:44;;;;;;;1.85;1.42;;;21.90;99.90;;;;;;5013511;28;20067;-79
2021/09/12 12:45:27;;;;;;;0.93;0.90;;;21.70;99.90;;;;;;5005878;28;20645;-79
2021/09/12 12:48:13;;;;;;;2.05;1.20;;;21.60;99.90;;;;;;5006753;28;20033;-79